createdAt,value
2024-05-09T00:06:49.776Z,3.65
2024-05-09T00:36:52.030Z,3.91
2024-05-09T01:06:54.490Z,4.04
2024-05-09T01:36:56.885Z,4.83
2024-05-09T02:06:59.285Z,5.32
2024-05-09T02:37:01.761Z,3.99
2024-05-09T03:07:03.937Z,5.23
2024-05-09T03:37:06.072Z,4.33
2024-05-09T04:07:07.782Z,5.51
2024-05-09T04:37:08.775Z,4.84
2024-05-09T05:07:10.236Z,3.28
2024-05-09T05:37:11.530Z,3.24
2024-05-09T06:07:12.698Z,3.17
2024-05-09T06:37:14.540Z,2.08
2024-05-09T07:07:16.363Z,2.09
2024-05-09T07:37:17.487Z,2.51
2024-05-09T08:32:46.398Z,2.09
2024-05-09T09:02:48.159Z,1.85
2024-05-09T09:32:49.754Z,1.80
2024-05-09T10:02:52.277Z,1.75
2024-05-09T10:32:55.391Z,1.92
2024-05-09T11:02:57.317Z,1.77
2024-05-09T11:32:59.416Z,1.65
2024-05-09T12:09:24.480Z,1.21
2024-05-09T12:39:27.589Z,0.86
2024-05-09T13:09:29.181Z,0.83
2024-05-09T13:39:30.389Z,1.09
2024-05-09T14:09:32.680Z,0.83
2024-05-09T14:39:34.678Z,0.89
2024-05-09T15:09:36.932Z,1.56
2024-05-09T15:39:38.849Z,1.00
2024-05-09T16:09:40.666Z,0.97
2024-05-09T16:39:42.458Z,1.38
2024-05-09T17:09:44.533Z,3.57
2024-05-09T17:39:46.462Z,1.45
2024-05-09T18:09:48.408Z,1.34
2024-05-09T18:39:52.683Z,1.69
2024-05-09T19:09:53.938Z,1.99
2024-05-09T19:39:55.476Z,4.82
2024-05-09T20:09:57.072Z,3.05
2024-05-09T20:39:58.956Z,3.49
2024-05-09T21:18:45.285Z,4.89
2024-05-09T21:48:46.202Z,3.07
2024-05-09T22:18:46.914Z,2.66
2024-05-09T22:57:48.365Z,3.00
2024-05-09T23:27:49.142Z,3.05
2024-05-09T23:57:49.615Z,3.26
